Time;durP1;ratioP1;P1;durP2;ratioP2;P2;SDS_P1;SDS_P2;PMS_P1;PMS_P2;Temp;Humidity;BMP_temperature;BMP_pressure;BME280_temperature;BME280_humidity;BME280_pressure;Samples;Min_cycle;Max_cycle;Signal;HPM_P1;HPM_P2
2022/12/20 00:01:20;;;;;;;3.73;1.30;;;;;;;4.61;100.00;99145.34;4949829;28;20238;-65
2022/12/20 00:03:49;;;;;;;2.73;1.83;;;;;;;4.73;100.00;99134.19;4938915;28;20317;-65
2022/12/20 00:06:15;;;;;;;3.33;1.70;;;;;;;4.78;100.00;99124.38;4944554;28;21184;-65
2022/12/20 00:08:42;;;;;;;4.90;1.83;;;;;;;4.76;100.00;99117.66;4948230;28;20289;-65
2022/12/20 00:11:09;;;;;;;3.27;1.73;;;;;;;4.74;100.00;99133.28;4949550;28;20241;-65
2022/12/20 00:13:38;;;;;;;3.83;1.70;;;;;;;4.66;100.00;99131.19;4947959;28;20230;-65
2022/12/20 00:16:06;;;;;;;3.20;1.77;;;;;;;4.75;100.00;99131.53;4943494;28;20227;-65
2022/12/20 00:18:33;;;;;;;2.63;1.20;;;;;;;4.69;100.00;99127.56;4947421;28;20222;-65
2022/12/20 00:21:00;;;;;;;1.77;1.17;;;;;;;4.71;100.00;99120.53;4947602;28;20241;-65
2022/12/20 00:23:28;;;;;;;1.50;1.30;;;;;;;4.79;100.00;99128.63;4947046;28;20230;-65
2022/12/20 00:26:00;;;;;;;2.27;1.27;;;;;;;4.86;100.00;99124.72;4946139;28;20241;-65
2022/12/20 00:28:27;;;;;;;3.63;1.20;;;;;;;4.95;100.00;99123.25;4947994;28;20234;-65
2022/12/20 00:30:55;;;;;;;2.63;1.10;;;;;;;4.93;100.00;99130.28;4947022;28;20239;-65
2022/12/20 00:33:22;;;;;;;3.47;1.20;;;;;;;4.96;100.00;99121.50;4950607;28;20234;-65
2022/12/20 00:35:49;;;;;;;3.60;1.20;;;;;;;4.91;100.00;99126.16;4948697;28;20238;-65
2022/12/20 00:38:15;;;;;;;2.77;1.70;;;;;;;4.89;100.00;99121.06;4945462;28;20218;-66
2022/12/20 00:40:42;;;;;;;3.57;1.60;;;;;;;4.89;100.00;99126.25;4948178;28;20230;-66
2022/12/20 00:43:09;;;;;;;4.87;1.70;;;;;;;4.86;100.00;99119.53;4945666;28;20241;-65
2022/12/20 00:45:37;;;;;;;1.70;1.17;;;;;;;5.06;100.00;99113.94;4947185;28;20237;-66
2022/12/20 00:48:06;;;;;;;3.20;1.30;;;;;;;5.19;100.00;99111.38;4948507;28;20230;-65
2022/12/20 00:50:33;;;;;;;3.80;1.40;;;;;;;5.29;100.00;99117.56;4947269;28;20289;-65
2022/12/20 00:52:59;;;;;;;5.97;1.37;;;;;;;5.38;100.00;99119.50;4941153;28;20242;-65
2022/12/20 00:55:26;;;;;;;2.63;1.40;;;;;;;5.43;100.00;99129.56;4945482;28;20234;-65
2022/12/20 00:57:52;;;;;;;3.70;1.60;;;;;;;5.43;100.00;99120.03;4948589;28;20639;-66
2022/12/20 01:00:20;;;;;;;4.77;1.30;;;;;;;5.42;100.00;99109.78;4952754;28;21003;-65
2022/12/20 01:02:46;;;;;;;2.30;1.37;;;;;;;5.39;100.00;99110.81;4946057;28;20258;-65
2022/12/20 01:05:15;;;;;;;2.43;1.30;;;;;;;5.37;100.00;99112.69;4945114;28;20233;-65
2022/12/20 01:07:41;;;;;;;2.73;1.43;;;;;;;5.42;100.00;99113.19;4948131;28;20226;-65
2022/12/20 01:10:09;;;;;;;2.10;1.30;;;;;;;5.29;100.00;99115.00;4943246;28;20671;-65
2022/12/20 01:12:36;;;;;;;2.23;1.40;;;;;;;5.25;100.00;99110.94;4948924;28;20710;-65
2022/12/20 01:15:04;;;;;;;3.43;1.40;;;;;;;5.27;100.00;99107.31;4950743;28;20308;-65
2022/12/20 01:17:31;;;;;;;2.97;1.60;;;;;;;5.24;100.00;99111.88;4948256;28;20285;-62
2022/12/20 01:19:57;;;;;;;3.07;1.33;;;;;;;5.60;100.00;99115.44;4964317;28;20226;-65
2022/12/20 01:22:25;;;;;;;2.20;1.20;;;;;;;5.88;100.00;99108.31;4951540;28;20230;-65
2022/12/20 01:24:52;;;;;;;1.70;1.10;;;;;;;5.94;100.00;99100.13;4951810;28;20237;-65
2022/12/20 01:27:18;;;;;;;1.80;1.20;;;;;;;6.16;100.00;99096.03;4951173;28;20226;-65
2022/12/20 01:29:45;;;;;;;3.10;1.20;;;;;;;6.24;100.00;99100.63;4952672;28;20630;-65
2022/12/20 01:32:12;;;;;;;4.77;1.43;;;;;;;6.12;100.00;99094.59;4967212;28;20321;-65
2022/12/20 01:34:38;;;;;;;2.73;1.27;;;;;;;6.06;100.00;99095.84;4955407;28;20252;-65
2022/12/20 01:37:05;;;;;;;4.30;1.53;;;;;;;6.04;100.00;99095.97;4967769;28;20234;-65
2022/12/20 01:39:33;;;;;;;2.73;0.97;;;;;;;5.91;100.00;99092.56;4952344;28;20222;-65
2022/12/20 01:42:00;;;;;;;2.90;1.23;;;;;;;5.78;100.00;99094.38;4948870;28;20242;-63
2022/12/20 01:44:55;;;;;;;2.97;1.30;;;;;;;5.60;100.00;99092.97;4953386;28;20644;-63
2022/12/20 01:47:23;;;;;;;3.67;1.10;;;;;;;5.52;100.00;99087.50;4949792;28;20230;-63
2022/12/20 01:49:53;;;;;;;3.87;2.27;;;;;;;5.46;100.00;99088.75;4972480;28;20727;-63
2022/12/20 01:52:24;;;;;;;3.70;1.27;;;;;;;5.31;100.00;99084.63;4952389;28;20240;-63
2022/12/20 01:54:55;;;;;;;3.27;1.40;;;;;;;5.27;100.00;99090.97;4952655;28;20221;-63
2022/12/20 01:57:27;;;;;;;4.80;1.37;;;;;;;5.28;100.00;99087.44;4953554;28;20663;-65
2022/12/20 01:59:56;;;;;;;2.33;1.50;;;;;;;5.22;100.00;99090.47;4949573;28;20218;-65
2022/12/20 02:02:23;;;;;;;3.90;1.37;;;;;;;5.12;100.00;99080.72;4970745;28;20230;-65
2022/12/20 02:04:50;;;;;;;2.03;1.00;;;;;;;5.00;100.00;99072.03;4970153;28;20234;-65
2022/12/20 02:07:20;;;;;;;2.63;1.17;;;;;;;4.96;100.00;99073.16;4951902;28;20221;-65
2022/12/20 02:09:48;;;;;;;3.87;1.00;;;;;;;4.93;100.00;99062.22;4955409;28;20739;-65
2022/12/20 02:12:20;;;;;;;1.33;1.00;;;;;;;4.97;100.00;99064.47;4951749;28;20230;-65
2022/12/20 02:14:59;;;;;;;2.47;1.50;;;;;;;4.92;100.00;99058.78;4959720;28;20649;-65
2022/12/20 02:17:35;;;;;;;3.83;1.60;;;;;;;4.90;100.00;99050.28;4973184;28;20234;-65
2022/12/20 02:20:34;;;;;;;4.40;1.40;;;;;;;4.90;100.00;99037.38;4953522;28;20582;-65
2022/12/20 02:23:31;;;;;;;2.20;1.07;;;;;;;4.86;100.00;99022.97;4954941;28;20293;-65
2022/12/20 02:26:14;;;;;;;1.33;1.20;;;;;;;4.78;100.00;99035.59;4970169;28;20249;-65
2022/12/20 02:29:05;;;;;;;3.77;1.57;;;;;;;4.74;100.00;99029.81;4957492;28;20234;-65
2022/12/20 02:31:38;;;;;;;3.57;1.20;;;;;;;4.69;100.00;99027.56;4957008;28;20238;-65
2022/12/20 02:34:06;;;;;;;1.80;1.30;;;;;;;4.74;100.00;99037.59;4954611;28;20230;-65
2022/12/20 02:36:33;;;;;;;2.20;1.23;;;;;;;4.69;100.00;99021.53;4965276;28;20269;-65
2022/12/20 02:39:00;;;;;;;3.23;1.40;;;;;;;4.69;100.00;99018.97;4967996;28;20648;-65
2022/12/20 02:41:31;;;;;;;3.10;1.40;;;;;;;4.79;100.00;99027.75;4958934;28;20237;-62
2022/12/20 02:46:51;;;;;;;3.27;1.80;;;;;;;4.60;100.00;99025.59;4959055;28;20234;-65
2022/12/20 02:49:22;;;;;;;2.30;1.60;;;;;;;4.49;100.00;99028.88;4952756;28;20218;-65
2022/12/20 02:51:53;;;;;;;3.77;1.50;;;;;;;4.55;100.00;99025.88;4965392;28;20225;-65
2022/12/20 02:54:19;;;;;;;3.27;1.53;;;;;;;4.47;100.00;99035.91;4953772;28;20285;-65
2022/12/20 02:56:54;;;;;;;5.67;3.03;;;;;;;4.30;100.00;99042.19;4955846;28;20309;-65
2022/12/20 02:59:24;;;;;;;4.37;2.77;;;;;;;4.20;100.00;99028.22;4953949;28;20231;-65
2022/12/20 03:01:54;;;;;;;4.27;2.77;;;;;;;4.09;100.00;99034.91;4949683;28;20615;-65
2022/12/20 03:04:26;;;;;;;6.77;3.67;;;;;;;3.95;100.00;99050.47;4954963;28;20221;-65
2022/12/20 03:06:57;;;;;;;5.50;3.73;;;;;;;3.83;100.00;99036.59;4962634;28;20246;-65
2022/12/20 03:09:24;;;;;;;7.20;4.00;;;;;;;3.81;100.00;99047.00;4970634;28;20226;-65
2022/12/20 03:11:51;;;;;;;8.43;5.67;;;;;;;3.65;100.00;99036.81;4955688;28;20234;-65
2022/12/20 03:14:18;;;;;;;8.57;6.00;;;;;;;3.56;100.00;99036.59;4951056;28;20302;-65
2022/12/20 03:16:47;;;;;;;9.33;6.33;;;;;;;3.42;100.00;99034.84;4955641;28;20226;-65
2022/12/20 03:19:15;;;;;;;8.80;5.40;;;;;;;3.42;100.00;99030.53;4971273;28;20226;-65
2022/12/20 03:21:42;;;;;;;10.23;5.97;;;;;;;3.23;100.00;99041.97;4954859;28;20318;-65
2022/12/20 03:24:09;;;;;;;18.60;8.47;;;;;;;3.21;100.00;99030.06;4968147;28;20229;-65
2022/12/20 03:26:37;;;;;;;10.47;7.27;;;;;;;3.17;100.00;99020.91;4956999;28;20236;-65
2022/12/20 03:29:04;;;;;;;14.10;7.20;;;;;;;3.10;100.00;99025.59;4950736;28;20232;-65
2022/12/20 03:31:31;;;;;;;12.37;7.30;;;;;;;3.02;100.00;99022.63;4970067;28;20237;-65
2022/12/20 03:33:58;;;;;;;11.10;6.80;;;;;;;3.03;100.00;99025.13;4968369;28;20234;-65
2022/12/20 03:36:27;;;;;;;10.27;7.03;;;;;;;2.99;100.00;99013.34;4970539;28;20217;-65
2022/12/20 03:39:00;;;;;;;12.70;7.00;;;;;;;2.88;100.00;99003.66;4950045;28;20234;-65
2022/12/20 03:41:31;;;;;;;10.57;7.10;;;;;;;2.86;100.00;98999.53;4952459;28;20732;-65
2022/12/20 03:43:57;;;;;;;10.87;7.10;;;;;;;2.87;100.00;98996.84;4951353;28;20222;-65
2022/12/20 03:46:25;;;;;;;10.37;6.80;;;;;;;2.85;100.00;98997.88;4954776;28;20241;-65
2022/12/20 03:48:52;;;;;;;10.83;7.00;;;;;;;2.86;100.00;99002.94;4953756;28;20230;-65
2022/12/20 03:51:18;;;;;;;10.23;6.30;;;;;;;2.92;100.00;99007.72;4955299;28;20280;-65
2022/12/20 03:53:46;;;;;;;11.20;7.03;;;;;;;2.89;100.00;99007.09;4951936;28;20254;-65
2022/12/20 03:56:14;;;;;;;10.67;7.10;;;;;;;2.87;100.00;98990.88;4952946;28;20296;-65
2022/12/20 03:58:42;;;;;;;12.93;6.13;;;;;;;2.82;100.00;99000.63;4958540;28;20710;-65
2022/12/20 04:01:20;;;;;;;10.43;6.47;;;;;;;2.84;100.00;98993.66;4967819;28;20312;-64
2022/12/20 04:03:48;;;;;;;8.80;5.90;;;;;;;2.88;100.00;98987.38;4969724;28;20229;-65
2022/12/20 04:06:15;;;;;;;9.67;6.30;;;;;;;2.87;100.00;98998.63;4951915;28;20828;-64
2022/12/20 04:08:42;;;;;;;8.60;5.87;;;;;;;2.92;100.00;98991.44;4953688;28;20230;-64
2022/12/20 04:11:17;;;;;;;10.30;5.70;;;;;;;2.94;100.00;98974.13;4953188;28;20226;-64
2022/12/20 04:14:07;;;;;;;8.20;5.40;;;;;;;2.93;100.00;98969.88;4949208;28;20240;-65
2022/12/20 04:16:34;;;;;;;11.60;5.77;;;;;;;2.96;100.00;98969.69;4953281;28;20234;-65
2022/12/20 04:19:01;;;;;;;9.03;5.17;;;;;;;3.00;100.00;98972.91;4950101;28;20317;-65
2022/12/20 04:21:35;;;;;;;7.33;5.23;;;;;;;3.07;100.00;98972.44;4966739;28;20230;-64
2022/12/20 04:24:05;;;;;;;271.20;99.57;;;;;;;3.14;100.00;98974.66;4949066;28;20266;-65
2022/12/20 04:26:59;;;;;;;93.97;35.43;;;;;;;3.26;100.00;98971.28;4947895;28;20237;-65
2022/12/20 04:29:25;;;;;;;57.17;23.37;;;;;;;3.30;100.00;98970.16;4951659;28;20277;-64
2022/12/20 04:31:52;;;;;;;186.87;89.37;;;;;;;3.37;100.00;98955.16;5157336;23;20234;-61
2022/12/20 04:34:20;;;;;;;58.50;28.90;;;;;;;3.38;100.00;98959.38;4965592;28;20217;-58
2022/12/20 04:36:47;;;;;;;44.17;23.07;;;;;;;3.40;100.00;98966.09;4963350;28;20226;-58
2022/12/20 04:39:21;;;;;;;34.10;17.10;;;;;;;3.37;100.00;98971.44;4977364;28;20229;-60
2022/12/20 04:42:17;;;;;;;30.33;15.80;;;;;;;3.33;100.00;98974.31;4962052;28;20373;-60
2022/12/20 04:44:44;;;;;;;30.47;15.57;;;;;;;3.32;100.00;98976.06;4964435;28;20234;-56
2022/12/20 04:47:11;;;;;;;29.50;18.50;;;;;;;3.38;100.00;98983.41;4961757;28;20244;-60
2022/12/20 04:49:38;;;;;;;15.50;10.77;;;;;;;3.39;100.00;98986.84;4964137;28;20232;-60
2022/12/20 04:54:46;;;;;;;16.47;9.70;;;;;;;3.37;100.00;98986.13;4969415;28;20226;-59
2022/12/20 04:57:18;;;;;;;17.03;7.40;;;;;;;3.39;100.00;98974.75;4961922;28;20225;-57
2022/12/20 04:59:45;;;;;;;15.00;8.03;;;;;;;3.38;100.00;98977.44;4957202;28;20804;-60
2022/12/20 05:02:14;;;;;;;13.03;7.63;;;;;;;3.41;100.00;98972.09;4966475;28;20225;-60
2022/12/20 05:04:47;;;;;;;14.87;8.47;;;;;;;3.47;100.00;98978.59;4964286;28;20261;-60
2022/12/20 05:07:14;;;;;;;13.73;8.27;;;;;;;3.38;100.00;98977.44;4970226;28;20686;-59
2022/12/20 05:09:47;;;;;;;12.67;8.17;;;;;;;3.33;100.00;98979.50;4963310;28;20259;-57
2022/12/20 05:12:13;;;;;;;10.87;7.43;;;;;;;3.31;100.00;98973.59;4963007;28;20237;-60
2022/12/20 05:14:41;;;;;;;12.13;7.63;;;;;;;3.19;100.00;98981.16;4964158;28;20213;-60
2022/12/20 05:17:09;;;;;;;11.50;7.87;;;;;;;3.15;100.00;98974.53;4966584;28;20252;-60
2022/12/20 05:19:36;;;;;;;12.30;7.37;;;;;;;3.09;100.00;98959.44;4979775;28;20701;-61
2022/12/20 05:27:48;;;;;;;12.90;8.73;;;;;;;2.96;100.00;98969.69;4963448;28;20435;-60
2022/12/20 05:30:16;;;;;;;12.70;6.70;;;;;;;2.93;100.00;98960.38;4962766;28;20230;-60
2022/12/20 05:32:44;;;;;;;11.03;6.37;;;;;;;2.92;100.00;98957.91;4964695;28;20288;-60
2022/12/20 05:35:11;;;;;;;7.03;5.27;;;;;;;3.02;100.00;98960.75;4960321;28;20222;-61
2022/12/20 05:37:37;;;;;;;11.83;6.30;;;;;;;3.00;100.00;98963.44;4964138;28;20252;-60
2022/12/20 05:40:12;;;;;;;10.80;6.97;;;;;;;3.07;100.00;98964.72;4961457;28;20666;-59
2022/12/20 05:42:39;;;;;;;8.37;5.90;;;;;;;3.10;100.00;98959.38;4964414;28;20234;-59
2022/12/20 05:45:06;;;;;;;12.43;7.10;;;;;;;3.08;100.00;98953.47;4961394;28;20233;-60
2022/12/20 05:47:43;;;;;;;18.57;10.47;;;;;;;3.09;100.00;98972.34;4962629;28;20232;-62
2022/12/20 05:50:12;;;;;;;127.50;47.03;;;;;;;3.10;100.00;98969.69;4964873;28;20256;-59
2022/12/20 05:52:58;;;;;;;59.70;28.53;;;;;;;3.19;100.00;98986.31;4964691;28;20620;-61
2022/12/20 05:55:25;;;;;;;22.23;13.83;;;;;;;3.25;100.00;98992.84;4967486;28;20226;-60
2022/12/20 05:57:52;;;;;;;20.92;15.32;;;;;;;3.29;100.00;98984.00;4963047;28;20457;-60
2022/12/20 06:00:26;;;;;;;19.30;9.23;;;;;;;3.34;100.00;98988.88;4983699;28;20244;-57
2022/12/20 06:02:55;;;;;;;17.00;9.40;;;;;;;3.53;100.00;98998.88;4963595;28;20226;-58
2022/12/20 06:05:21;;;;;;;19.20;12.60;;;;;;;3.64;100.00;98983.53;4968954;28;20253;-59
2022/12/20 06:07:49;;;;;;;20.07;12.17;;;;;;;3.59;100.00;98971.84;4972327;28;20230;-59
2022/12/20 06:10:17;;;;;;;17.23;10.40;;;;;;;3.60;100.00;98982.06;4966511;28;20293;-58
2022/12/20 06:12:52;;;;;;;17.23;11.07;;;;;;;3.56;100.00;98974.63;4964299;28;20659;-59
2022/12/20 06:15:19;;;;;;;21.37;11.70;;;;;;;3.53;100.00;98967.91;4968861;28;20709;-58
2022/12/20 06:17:47;;;;;;;36.00;18.07;;;;;;;3.50;100.00;98950.88;4970276;28;20257;-58
2022/12/20 06:20:15;;;;;;;46.17;20.07;;;;;;;3.45;100.00;98954.66;4965586;28;20233;-57
2022/12/20 06:22:45;;;;;;;28.10;14.00;;;;;;;3.43;100.00;98952.19;4967008;28;20700;-58
2022/12/20 06:25:14;;;;;;;22.50;13.03;;;;;;;3.46;100.00;98957.16;4963679;28;20328;-58
2022/12/20 06:27:41;;;;;;;16.33;10.77;;;;;;;3.47;100.00;98953.63;4973295;28;20575;-59
2022/12/20 06:30:14;;;;;;;15.77;10.17;;;;;;;3.42;100.00;98953.09;4964865;28;20618;-58
2022/12/20 06:33:05;;;;;;;51.83;28.53;;;;;;;3.47;100.00;98958.81;4963250;28;20240;-58
2022/12/20 06:35:33;;;;;;;34.47;19.57;;;;;;;3.34;100.00;98963.91;4968686;28;20233;-59
2022/12/20 06:38:00;;;;;;;20.43;12.33;;;;;;;3.36;100.00;98956.88;4963516;28;20226;-58
2022/12/20 06:40:30;;;;;;;20.67;12.23;;;;;;;3.44;100.00;98947.84;4965491;28;20225;-58
2022/12/20 06:43:00;;;;;;;47.57;27.53;;;;;;;3.48;100.00;98944.97;4961927;28;20282;-59
2022/12/20 06:45:26;;;;;;;43.43;29.67;;;;;;;3.47;100.00;98945.91;4981545;28;20304;-57
2022/12/20 06:47:54;;;;;;;42.37;24.07;;;;;;;3.55;100.00;98950.56;4969961;28;20233;-58
2022/12/20 06:50:23;;;;;;;29.23;18.77;;;;;;;3.71;100.00;98952.97;4982846;28;20313;-58
2022/12/20 06:52:51;;;;;;;20.50;12.87;;;;;;;3.81;100.00;98951.47;4981087;28;20233;-59
2022/12/20 06:55:17;;;;;;;23.20;14.57;;;;;;;3.99;100.00;98949.44;4980076;28;20222;-59
2022/12/20 06:57:45;;;;;;;23.60;16.20;;;;;;;4.11;100.00;98955.53;4966923;28;20236;-58
2022/12/20 07:00:13;;;;;;;40.63;26.10;;;;;;;4.28;100.00;98948.44;4962642;28;20630;-58
2022/12/20 07:02:40;;;;;;;14.57;8.88;;;;;;;4.36;100.00;98953.91;4966861;28;20846;-60
2022/12/20 07:05:07;;;;;;;13.67;7.67;;;;;;;4.56;100.00;98954.34;4964749;28;20259;-58
2022/12/20 07:07:34;;;;;;;6.67;4.90;;;;;;;4.76;100.00;98959.91;4967822;28;20238;-58
2022/12/20 07:10:03;;;;;;;11.03;6.43;;;;;;;4.85;100.00;98954.91;4963748;28;20722;-59
2022/12/20 07:12:30;;;;;;;5.93;4.50;;;;;;;4.90;100.00;98951.19;4966182;28;20233;-59
2022/12/20 07:14:57;;;;;;;3.53;1.93;;;;;;;5.21;100.00;98952.44;4963188;28;20233;-59
2022/12/20 07:17:24;;;;;;;2.80;1.57;;;;;;;5.65;100.00;98937.25;4966087;28;20753;-58
2022/12/20 07:19:51;;;;;;;6.10;3.67;;;;;;;5.83;100.00;98948.00;4965998;28;20237;-58
2022/12/20 07:22:17;;;;;;;7.10;3.33;;;;;;;5.97;100.00;98943.59;4964596;28;20758;-58
2022/12/20 07:24:46;;;;;;;8.67;3.07;;;;;;;5.99;100.00;98955.50;4967110;28;20222;-59
2022/12/20 07:27:14;;;;;;;9.57;7.33;;;;;;;6.03;100.00;98961.31;4963610;28;20300;-59
2022/12/20 07:29:41;;;;;;;9.93;4.80;;;;;;;6.03;100.00;98951.78;4966632;28;20288;-59
2022/12/20 07:32:08;;;;;;;3.27;1.73;;;;;;;6.04;100.00;98944.81;4962885;28;20240;-59
2022/12/20 07:34:36;;;;;;;2.73;1.30;;;;;;;6.13;100.00;98932.97;4966084;28;20264;-59
2022/12/20 07:37:03;;;;;;;2.27;1.73;;;;;;;6.21;100.00;98928.03;4963899;28;20678;-59
2022/12/20 07:39:29;;;;;;;2.43;1.80;;;;;;;6.31;100.00;98922.97;4966875;28;20222;-60
2022/12/20 07:41:56;;;;;;;4.27;1.60;;;;;;;6.37;100.00;98921.66;4963803;28;20233;-58
2022/12/20 07:44:24;;;;;;;3.67;2.27;;;;;;;6.33;100.00;98914.13;4965807;28;20276;-59
2022/12/20 07:46:51;;;;;;;2.50;1.40;;;;;;;6.39;100.00;98912.00;4966829;28;20226;-59
2022/12/20 07:49:18;;;;;;;2.83;1.30;;;;;;;6.55;100.00;98914.25;4964490;28;20224;-59
2022/12/20 07:51:48;;;;;;;4.40;1.13;;;;;;;6.62;100.00;98912.84;4950984;28;20242;-58
2022/12/20 07:54:18;;;;;;;2.93;2.03;;;;;;;6.66;100.00;98901.28;4961549;28;20233;-59
2022/12/20 07:56:48;;;;;;;3.80;2.00;;;;;;;6.72;100.00;98906.00;4965282;28;20222;-59
2022/12/20 07:59:17;;;;;;;5.67;2.27;;;;;;;6.72;100.00;98912.94;4960556;28;20716;-58
2022/12/20 08:01:48;;;;;;;7.27;3.20;;;;;;;6.83;100.00;98907.75;4964828;28;20917;-59
2022/12/20 08:04:19;;;;;;;4.73;2.73;;;;;;;6.77;100.00;98906.47;4961764;28;20643;-59
2022/12/20 08:06:46;;;;;;;5.83;2.60;;;;;;;6.76;100.00;98911.75;4966000;28;20236;-57
2022/12/20 08:09:14;;;;;;;4.37;2.67;;;;;;;6.70;100.00;98907.03;4962963;28;20575;-59
2022/12/20 08:11:43;;;;;;;3.43;2.43;;;;;;;6.69;100.00;98906.25;4964223;28;20705;-60
2022/12/20 08:14:11;;;;;;;6.27;3.17;;;;;;;6.70;100.00;98912.25;4959059;28;20287;-59
2022/12/20 08:16:38;;;;;;;8.70;3.37;;;;;;;6.71;100.00;98919.06;4966653;28;20222;-59
2022/12/20 08:19:05;;;;;;;5.47;3.20;;;;;;;6.64;100.00;98914.34;4963461;28;20230;-60
2022/12/20 08:21:32;;;;;;;5.83;3.00;;;;;;;6.75;100.00;98904.91;4965984;28;20583;-58
2022/12/20 08:23:59;;;;;;;4.77;2.40;;;;;;;6.90;100.00;98895.09;4962942;28;20827;-59
2022/12/20 08:26:26;;;;;;;5.17;2.00;;;;;;;6.94;100.00;98893.91;4964361;28;20230;-59
2022/12/20 08:28:54;;;;;;;7.93;4.83;;;;;;;7.04;100.00;98894.84;4963054;28;20234;-59
2022/12/20 08:31:20;;;;;;;7.40;4.13;;;;;;;7.02;100.00;98888.13;4965626;28;20641;-59
2022/12/20 08:33:47;;;;;;;7.27;4.40;;;;;;;7.24;100.00;98887.25;4963852;28;20252;-58
2022/12/20 08:36:15;;;;;;;8.60;4.77;;;;;;;7.21;100.00;98875.34;4961330;28;20229;-59
2022/12/20 08:38:42;;;;;;;8.37;4.10;;;;;;;7.25;100.00;98881.09;4965601;28;20240;-60
2022/12/20 08:41:10;;;;;;;6.53;3.50;;;;;;;7.26;100.00;98880.16;4962665;28;20622;-59
2022/12/20 08:43:38;;;;;;;6.07;2.97;;;;;;;7.29;100.00;98876.50;4965309;28;20698;-59
2022/12/20 08:46:08;;;;;;;2.80;2.17;;;;;;;7.33;100.00;98864.91;4962397;28;20238;-59
2022/12/20 08:48:34;;;;;;;2.97;1.90;;;;;;;7.45;100.00;98874.28;4965372;28;20634;-59
2022/12/20 08:51:03;;;;;;;5.03;1.90;;;;;;;7.51;100.00;98875.56;4963053;28;20367;-60
2022/12/20 08:53:31;;;;;;;5.50;3.83;;;;;;;7.57;100.00;98871.66;4965193;28;20772;-58
2022/12/20 08:56:04;;;;;;;7.43;3.70;;;;;;;7.51;100.00;98873.78;4962302;28;20229;-58
2022/12/20 08:58:31;;;;;;;9.03;6.37;;;;;;;7.57;100.00;98869.88;4964989;28;20253;-59
2022/12/20 09:00:59;;;;;;;19.30;10.80;;;;;;;7.45;100.00;98882.09;4962851;28;20285;-59
2022/12/20 09:03:25;;;;;;;23.40;13.53;;;;;;;7.31;100.00;98874.59;4964206;28;20249;-58
2022/12/20 09:05:52;;;;;;;25.90;13.83;;;;;;;6.91;100.00;98873.41;4962259;28;20230;-59
2022/12/20 09:08:19;;;;;;;21.93;12.60;;;;;;;6.88;100.00;98869.28;4965119;28;20222;-59
2022/12/20 09:10:46;;;;;;;20.43;11.30;;;;;;;6.83;100.00;98876.59;4965213;28;20237;-58
2022/12/20 09:13:13;;;;;;;19.93;12.70;;;;;;;6.75;100.00;98872.03;4961939;28;20292;-59
2022/12/20 09:15:41;;;;;;;28.10;15.90;;;;;;;6.58;100.00;98865.56;4965722;28;20226;-59
2022/12/20 09:18:07;;;;;;;31.33;17.33;;;;;;;6.55;100.00;98870.16;4962544;28;20225;-59
2022/12/20 09:20:34;;;;;;;29.63;18.20;;;;;;;6.48;100.00;98878.41;4965019;28;20233;-59
2022/12/20 09:23:00;;;;;;;21.37;15.13;;;;;;;6.57;100.00;98882.06;4963302;28;20229;-59
2022/12/20 09:25:28;;;;;;;21.00;13.73;;;;;;;6.70;100.00;98881.94;4969347;28;20221;-58
2022/12/20 09:27:56;;;;;;;26.73;14.53;;;;;;;6.86;100.00;98888.53;4965811;28;20233;-61
2022/12/20 09:30:23;;;;;;;28.27;15.00;;;;;;;6.71;100.00;98886.19;4968881;28;20225;-58
2022/12/20 09:32:49;;;;;;;24.90;15.93;;;;;;;6.60;100.00;98892.19;4968192;28;20237;-60
2022/12/20 09:35:16;;;;;;;29.30;17.50;;;;;;;6.54;100.00;98897.84;4965415;28;20225;-59
2022/12/20 09:37:43;;;;;;;27.03;14.97;;;;;;;6.68;100.00;98893.38;4969329;28;20229;-55
2022/12/20 09:40:17;;;;;;;27.70;15.83;;;;;;;6.66;100.00;98893.50;4965794;28;20230;-53
2022/12/20 09:42:43;;;;;;;22.67;14.20;;;;;;;6.80;100.00;98900.19;4968297;28;20236;-59
2022/12/20 09:45:27;;;;;;;25.83;14.87;;;;;;;6.81;100.00;98908.81;4965433;28;20280;-59
2022/12/20 09:47:53;;;;;;;20.93;13.07;;;;;;;6.77;98.53;98901.28;4965616;28;20237;-59
2022/12/20 09:50:28;;;;;;;21.07;12.67;;;;;;;6.71;100.00;98890.53;4968431;28;20225;-58
2022/12/20 09:53:09;;;;;;;19.90;13.33;;;;;;;6.82;99.42;98897.50;4965310;28;20237;-58
2022/12/20 09:55:43;;;;;;;22.90;13.53;;;;;;;6.89;99.94;98890.88;4968571;28;20283;-59
2022/12/20 09:58:30;;;;;;;21.33;13.10;;;;;;;6.92;99.18;98888.88;4965795;28;20230;-59
2022/12/20 10:00:58;;;;;;;21.73;12.83;;;;;;;6.86;100.00;98891.13;4965232;28;20760;-59
2022/12/20 10:03:29;;;;;;;23.57;13.10;;;;;;;7.05;99.97;98901.69;4967091;28;20280;-60
2022/12/20 10:05:59;;;;;;;21.93;13.40;;;;;;;7.21;97.67;98882.28;4965594;28;20765;-60
2022/12/20 10:08:45;;;;;;;18.73;12.20;;;;;;;7.29;96.59;98882.50;4967559;28;20217;-59
2022/12/20 10:11:28;;;;;;;25.10;14.93;;;;;;;7.13;98.60;98876.88;4965543;28;22938;-59
2022/12/20 10:14:02;;;;;;;25.33;14.07;;;;;;;7.17;97.37;98870.50;4965164;28;20236;-56
2022/12/20 10:16:41;;;;;;;24.47;13.17;;;;;;;7.32;98.09;98868.47;4968436;28;20283;-59
2022/12/20 10:19:27;;;;;;;20.80;12.47;;;;;;;7.26;99.25;98861.16;4965635;28;20244;-59
2022/12/20 10:22:04;;;;;;;24.00;13.30;;;;;;;7.12;99.89;98859.66;4965000;28;20489;-59
2022/12/20 10:24:32;;;;;;;25.27;14.77;;;;;;;7.23;100.00;98872.59;4967076;28;20225;-59
2022/12/20 10:27:07;;;;;;;29.10;16.50;;;;;;;7.13;100.00;98864.75;4963963;28;20598;-57
2022/12/20 10:29:34;;;;;;;26.37;17.00;;;;;;;7.07;99.04;98863.44;4968171;28;20615;-59
2022/12/20 10:32:10;;;;;;;32.53;18.77;;;;;;;6.93;100.00;98849.00;4964000;28;20245;-58
2022/12/20 10:34:37;;;;;;;27.23;17.27;;;;;;;6.90;100.00;98840.59;4967578;28;20286;-60
2022/12/20 10:37:14;;;;;;;28.17;17.50;;;;;;;6.94;100.00;98839.41;4964491;28;20233;-58
2022/12/20 10:39:43;;;;;;;30.67;18.00;;;;;;;6.93;100.00;98828.22;4966738;28;20756;-59
2022/12/20 10:42:26;;;;;;;27.07;18.47;;;;;;;6.85;100.00;98822.81;4964595;28;20226;-58
2022/12/20 10:44:53;;;;;;;31.03;18.07;;;;;;;6.92;100.00;98818.78;4964587;28;20288;-60
2022/12/20 10:47:35;;;;;;;33.33;18.13;;;;;;;6.98;100.00;98827.03;4967710;28;20282;-59
2022/12/20 10:50:13;;;;;;;30.10;18.60;;;;;;;7.13;100.00;98831.00;4962686;28;20757;-60
2022/12/20 10:52:39;;;;;;;32.03;19.40;;;;;;;7.18;100.00;98836.66;4962426;28;20234;-60
2022/12/20 10:55:34;;;;;;;50.43;28.97;;;;;;;7.08;100.00;98833.13;4964400;28;20276;-60
2022/12/20 10:58:04;;;;;;;52.57;30.27;;;;;;;7.02;100.00;98818.06;4964850;28;20317;-60
2022/12/20 11:00:32;;;;;;;44.17;23.53;;;;;;;7.07;100.00;98808.94;4966695;28;20218;-60
2022/12/20 11:03:07;;;;;;;46.27;27.53;;;;;;;6.91;100.00;98798.97;4963079;28;20238;-60
2022/12/20 11:05:34;;;;;;;45.07;25.73;;;;;;;7.08;100.00;98795.00;4967458;28;20221;-60
2022/12/20 11:08:12;;;;;;;43.40;25.87;;;;;;;7.11;100.00;98775.78;4964160;28;20273;-60
2022/12/20 11:10:39;;;;;;;38.30;22.67;;;;;;;7.08;100.00;98757.88;4967347;28;20241;-59
2022/12/20 11:13:06;;;;;;;31.37;16.83;;;;;;;7.27;100.00;98748.56;4963513;28;20231;-60
2022/12/20 11:15:35;;;;;;;39.27;20.90;;;;;;;7.52;100.00;98747.34;4967326;28;20690;-60
2022/12/20 11:18:07;;;;;;;32.63;20.97;;;;;;;7.73;100.00;98772.50;4963900;28;20284;-60
2022/12/20 11:20:41;;;;;;;34.40;21.63;;;;;;;7.91;100.00;98767.50;4966479;28;20225;-60
2022/12/20 11:23:21;;;;;;;35.47;20.97;;;;;;;8.12;100.00;98773.47;4962371;28;20284;-61
2022/12/20 11:26:03;;;;;;;27.93;16.80;;;;;;;8.40;100.00;98765.91;4965781;28;20225;-61
2022/12/20 11:28:49;;;;;;;21.17;12.60;;;;;;;8.85;96.37;98756.81;4963570;28;20937;-60
2022/12/20 11:31:23;;;;;;;10.37;5.80;;;;;;;9.31;90.84;98766.63;4963029;28;20674;-60
2022/12/20 11:34:04;;;;;;;0.00;0.00;;;;;;;9.68;87.24;98765.88;4966192;28;20233;-60
2022/12/20 11:36:44;;;;;;;0.00;0.00;;;;;;;9.95;87.54;98755.63;4964758;28;20232;-58
2022/12/20 11:39:19;;;;;;;0.00;0.00;;;;;;;9.98;89.36;98745.75;4962907;28;20226;-59
2022/12/20 11:41:56;;;;;;;0.00;0.00;;;;;;;10.12;87.38;98756.66;4967317;28;20237;-59
2022/12/20 11:44:32;;;;;;;0.00;0.00;;;;;;;10.27;84.80;98757.00;4963433;28;20230;-59
2022/12/20 11:47:32;;;;;;;0.00;0.00;;;;;;;10.51;85.58;98750.44;4962983;28;20281;-58
2022/12/20 11:50:32;;;;;;;0.00;0.00;;;;;;;10.58;84.90;98759.34;4963453;28;20323;-58
2022/12/20 11:53:02;;;;;;;0.00;0.00;;;;;;;10.61;85.57;98759.00;4963222;28;20446;-59